Saratoga, North Carolina
Current Conditions -  °F | °C
As of 12:53 PM on Monday 24 Nov 2014 (Local Time) from KRWI Reporting Station
Overcast Overcast  
Wind Chill: 72°   Ceiling: 3300
Heat Index: 72°   Visibility: 10mi
Dew Point: 63°   Wind: 12mph
Humidity: 73%   Direction: 190°S
Pressure: 29.8"   Gusts: NA
Location:  35.65°N, 77.78°W
Report Text: KRWI 241753Z AUTO 19010KT 10SM SCT025 BKN033 OVC095 22/17 A2980 RMK AO2 SLP089 T02220172 10222 20167 58019
Loading
Personal Weather Stations






























Interactive Weather Map New forecast layout! Learn more

10-Day Weather Forecast

Advertisements
Track Severe Weather on mobile